Station Historical Data
Daily Summary for April 6, 2017 Units:  Metric    English   Both
« Previous Day
Next Day »
Daily Weekly Monthly Yearly Custom
  High: Low: Average:
Temperature: 12.4 °C 0.5 °C 7.9 °C
Dew Point: 9.9 °C -0.7 °C 5.9 °C
Humidity: 93% 79% 88%
Wind Speed: 22.5km/h 0km/h 6.3km/h
Wind Gust: 30.6km/h - -
Wind- - SE
Pressure: 1004.6 hPa 988.4 hPa -
Precipitation: 0 mm    
Historical Graphs
 
 
Tabular Data for April 6, 2017
Time Temperature Dew Point Pressure Wind Wind Speed Wind Gust Humidity Rainfall Rate (Hourly)
00:04 6.2 °C 2.8 °C 1004.6 hPa NE 14.5 km/h 24.1 km/h 79% 0 mm
00:09 6.2 °C 2.8 °C 1004.6 hPa NE 14.5 km/h 27.4 km/h 79% 0 mm
00:14 6.2 °C 2.9 °C 1004.6 hPa NE 14.5 km/h 27.4 km/h 80% 0 mm
00:19 6.2 °C 2.9 °C 1004.6 hPa NE 14.5 km/h 25.7 km/h 80% 0 mm
00:24 6.1 °C 2.9 °C 1004.6 hPa NE 14.5 km/h 27.4 km/h 80% 0 mm
00:29 6.1 °C 2.9 °C 1004.6 hPa NNE 9.7 km/h 22.5 km/h 80% 0 mm
00:34 6.1 °C 2.9 °C 1004.6 hPa NE 14.5 km/h 24.1 km/h 80% 0 mm
00:39 6.1 °C 2.9 °C 1004.6 hPa ENE 22.5 km/h 27.4 km/h 80% 0 mm
00:44 6.2 °C 2.9 °C 1004.3 hPa NE 9.7 km/h 25.7 km/h 80% 0 mm
00:49 6.2 °C 3 °C 1004.3 hPa NE 6.4 km/h 24.1 km/h 80% 0 mm
00:54 6.2 °C 3 °C 1003.9 hPa NE 9.7 km/h 20.9 km/h 80% 0 mm
00:59 6.3 °C 3.1 °C 1003.6 hPa East 16.1 km/h 25.7 km/h 80% 0 mm
01:04 6.3 °C 3.1 °C 1003.6 hPa ENE 12.9 km/h 27.4 km/h 80% 0 mm
01:09 6.3 °C 3.1 °C 1003.6 hPa ENE 12.9 km/h 27.4 km/h 80% 0 mm
01:14 6.3 °C 3.1 °C 1003.3 hPa ENE 11.3 km/h 27.4 km/h 80% 0 mm
01:19 6.3 °C 3.1 °C 1003.3 hPa ENE 9.7 km/h 27.4 km/h 80% 0 mm
01:24 6.3 °C 3.1 °C 1002.9 hPa ENE 9.7 km/h 20.9 km/h 80% 0 mm
01:29 6.3 °C 3.1 °C 1002.9 hPa ENE 9.7 km/h 20.9 km/h 80% 0 mm
01:34 6.3 °C 3.1 °C 1002.9 hPa ENE 12.9 km/h 22.5 km/h 80% 0 mm
01:39 6.3 °C 3.1 °C 1002.9 hPa ENE 11.3 km/h 22.5 km/h 80% 0 mm
01:44 6.3 °C 3.1 °C 1002.6 hPa ENE 9.7 km/h 22.5 km/h 80% 0 mm
01:49 6.3 °C 3.1 °C 1002.3 hPa NE 19.3 km/h 22.5 km/h 80% 0 mm
01:54 6.3 °C 3.1 °C 1001.9 hPa NE 9.7 km/h 19.3 km/h 80% 0 mm
01:59 6.3 °C 3.1 °C 1001.9 hPa East 12.9 km/h 24.1 km/h 80% 0 mm
02:04 6.3 °C 3.1 °C 1001.9 hPa NE 11.3 km/h 20.9 km/h 80% 0 mm
02:09 6.3 °C 3.1 °C 1001.9 hPa ENE 11.3 km/h 20.9 km/h 80% 0 mm
02:14 6.3 °C 3.1 °C 1001.9 hPa ENE 11.3 km/h 20.9 km/h 80% 0 mm
02:19 6.3 °C 3.3 °C 1001.9 hPa ENE 11.3 km/h 20.9 km/h 81% 0 mm
02:24 6.3 °C 3.3 °C 1001.6 hPa ENE 9.7 km/h 20.9 km/h 81% 0 mm
02:29 6.3 °C 3.3 °C 1001.6 hPa ENE 19.3 km/h 19.3 km/h 81% 0 mm
02:34 6.3 °C 3.3 °C 1001.6 hPa NE 4.8 km/h 19.3 km/h 81% 0 mm
02:39 6.3 °C 3.3 °C 1001.2 hPa NE 12.9 km/h 19.3 km/h 81% 0 mm
02:44 6.4 °C 3.4 °C 1001.2 hPa NE 11.3 km/h 22.5 km/h 81% 0 mm
02:49 6.4 °C 3.4 °C 1000.9 hPa NE 9.7 km/h 22.5 km/h 81% 0 mm
02:54 6.3 °C 3.3 °C 1000.9 hPa NE 6.4 km/h 20.9 km/h 81% 0 mm
02:59 6.4 °C 3.4 °C 1000.6 hPa NE 8 km/h 19.3 km/h 81% 0 mm
03:04 6.4 °C 3.4 °C 1000.6 hPa NE 4.8 km/h 20.9 km/h 81% 0 mm
03:09 6.4 °C 3.4 °C 1000.2 hPa NNE 8 km/h 16.1 km/h 81% 0 mm
03:14 6.4 °C 3.4 °C 999.9 hPa NE 9.7 km/h 19.3 km/h 81% 0 mm
03:19 6.4 °C 3.4 °C 999.9 hPa ENE 14.5 km/h 16.1 km/h 81% 0 mm
03:24 6.4 °C 3.4 °C 999.9 hPa NNE 6.4 km/h 20.9 km/h 81% 0 mm
03:29 6.4 °C 3.4 °C 999.9 hPa ENE 8 km/h 19.3 km/h 81% 0 mm
03:34 6.4 °C 3.4 °C 999.9 hPa NE 12.9 km/h 16.1 km/h 81% 0 mm
03:39 6.5 °C 3.5 °C 999.5 hPa NE 8 km/h 17.7 km/h 81% 0 mm
03:44 6.5 °C 3.5 °C 999.5 hPa NNE 6.4 km/h 16.1 km/h 81% 0 mm
03:49 6.6 °C 3.5 °C 999.2 hPa NE 9.7 km/h 16.1 km/h 81% 0 mm
03:54 6.6 °C 3.6 °C 999.2 hPa NE 8 km/h 16.1 km/h 81% 0 mm
03:59 6.7 °C 3.6 °C 999.2 hPa NE 8 km/h 16.1 km/h 81% 0 mm
04:04 6.7 °C 3.7 °C 999.2 hPa NE 8 km/h 17.7 km/h 81% 0 mm
04:09 6.7 °C 3.7 °C 998.9 hPa NE 8 km/h 16.1 km/h 81% 0 mm
04:14 6.8 °C 3.7 °C 998.9 hPa ENE 4.8 km/h 12.9 km/h 81% 0 mm
04:19 6.8 °C 3.9 °C 998.9 hPa NE 6.4 km/h 12.9 km/h 82% 0.25 mm
04:24 6.8 °C 4.1 °C 998.9 hPa ENE 8 km/h 17.7 km/h 83% 0.25 mm
04:29 6.8 °C 4.3 °C 998.5 hPa ENE 6.4 km/h 14.5 km/h 84% 0.25 mm
04:34 6.8 °C 4.3 °C 998.5 hPa NE 4.8 km/h 14.5 km/h 84% 0.25 mm
04:39 6.8 °C 4.5 °C 998.2 hPa NE 3.2 km/h 11.3 km/h 85% 0.25 mm
04:44 6.8 °C 4.5 °C 998.5 hPa NE 9.7 km/h 12.9 km/h 85% 0.25 mm
04:49 6.9 °C 4.6 °C 998.2 hPa ENE 6.4 km/h 14.5 km/h 85% 0.25 mm
04:54 7 °C 4.8 °C 998.2 hPa ENE 6.4 km/h 14.5 km/h 86% 0.51 mm
04:59 7.1 °C 4.9 °C 998.2 hPa ENE 4.8 km/h 14.5 km/h 86% 0.76 mm
05:04 7.2 °C 5.2 °C 997.9 hPa ENE 4.8 km/h 14.5 km/h 87% 1.02 mm
05:09 7.3 °C 5.3 °C 997.9 hPa ENE 4.8 km/h 8 km/h 87% 1.27 mm
05:14 7.3 °C 5.3 °C 997.5 hPa ENE 4.8 km/h 11.3 km/h 87% 1.52 mm
05:19 7.4 °C 5.6 °C 997.5 hPa ESE 4.8 km/h 12.9 km/h 88% 1.27 mm
05:24 7.4 °C 5.6 °C 997.2 hPa ENE 6.4 km/h 12.9 km/h 88% 1.27 mm
05:29 7.6 °C 5.7 °C 997.2 hPa East 4.8 km/h 11.3 km/h 88% 1.27 mm
05:34 7.7 °C 5.8 °C 997.2 hPa ENE 6.4 km/h 9.7 km/h 88% 1.27 mm
05:39 7.7 °C 5.8 °C 997.2 hPa Calm   6.4 km/h 88% 1.27 mm
05:44 7.8 °C 6.1 °C 996.8 hPa ENE 4.8 km/h 8 km/h 89% 1.27 mm
05:49 8.2 °C 6.4 °C 996.8 hPa ENE 4.8 km/h 11.3 km/h 89% 1.27 mm
05:54 8.5 °C 6.8 °C 996.5 hPa NE 4.8 km/h 9.7 km/h 89% 1.02 mm
05:59 8.7 °C 6.9 °C 997.2 hPa ENE 4.8 km/h 9.7 km/h 89% 0.76 mm
06:04 8.9 °C 7.2 °C 996.8 hPa ENE 3.2 km/h 9.7 km/h 89% 0.51 mm
06:09 9.3 °C 7.6 °C 996.8 hPa East 3.2 km/h 9.7 km/h 89% 0.25 mm
06:14 9.5 °C 7.8 °C 996.8 hPa Calm   8 km/h 89% 0 mm
06:19 9.7 °C 7.8 °C 996.8 hPa ESE 1.6 km/h 3.2 km/h 88% 0 mm
06:24 10.1 °C 8.2 °C 996.5 hPa Calm   8 km/h 88% 0 mm
06:29 10.4 °C 8.6 °C 996.5 hPa ESE 1.6 km/h 8 km/h 88% 0 mm
06:34 10.8 °C 8.7 °C 996.2 hPa SE 1.6 km/h 4.8 km/h 87% 0 mm
06:39 11.1 °C 8.8 °C 996.2 hPa SE 1.6 km/h 6.4 km/h 86% 0 mm
06:44 11.5 °C 9.1 °C 996.2 hPa SSE 3.2 km/h 12.9 km/h 85% 0 mm
06:49 11.7 °C 9.1 °C 996.2 hPa SE 8 km/h 11.3 km/h 84% 0 mm
06:54 11.9 °C 9.2 °C 996.2 hPa SSE 6.4 km/h 12.9 km/h 83% 0 mm
06:59 12 °C 9 °C 996.2 hPa South 3.2 km/h 6.4 km/h 82% 0 mm
07:04 12 °C 9 °C 996.2 hPa SSE 3.2 km/h 8 km/h 82% 0 mm
07:09 12.1 °C 9.1 °C 996.2 hPa SSE 3.2 km/h 8 km/h 82% 0 mm
07:14 12.1 °C 9.1 °C 996.5 hPa SSE 3.2 km/h 9.7 km/h 82% 0.25 mm
07:19 12.2 °C 9.2 °C 996.5 hPa South 3.2 km/h 9.7 km/h 82% 0.25 mm
07:24 12.2 °C 9.1 °C 996.5 hPa SSE 9.7 km/h 9.7 km/h 81% 0.25 mm
07:29 12.3 °C 9.1 °C 996.5 hPa South 4.8 km/h 9.7 km/h 81% 0.25 mm
07:34 12.3 °C 9.2 °C 996.5 hPa South 4.8 km/h 11.3 km/h 81% 0.25 mm
07:39 12.4 °C 9.2 °C 996.5 hPa South 4.8 km/h 11.3 km/h 81% 0.25 mm
07:44 12.4 °C 9.2 °C 996.2 hPa South 4.8 km/h 11.3 km/h 81% 0.25 mm
07:49 12.3 °C 9.2 °C 996.2 hPa South 4.8 km/h 11.3 km/h 81% 0.25 mm
07:54 12.4 °C 9.2 °C 996.2 hPa SSE 3.2 km/h 8 km/h 81% 0.25 mm
07:59 12.4 °C 9.2 °C 996.2 hPa SSE 6.4 km/h 8 km/h 81% 0.25 mm
08:04 12.3 °C 9 °C 996.2 hPa South 4.8 km/h 12.9 km/h 80% 0.25 mm
08:09 12.3 °C 9 °C 995.8 hPa SSE 6.4 km/h 17.7 km/h 80% 0.25 mm
08:14 12.3 °C 9 °C 995.5 hPa SSE 8 km/h 17.7 km/h 80% 0 mm
08:19 12.3 °C 8.7 °C 995.5 hPa South 4.8 km/h 14.5 km/h 79% 0 mm
08:24 12.3 °C 8.7 °C 995.5 hPa South 12.9 km/h 12.9 km/h 79% 0 mm
08:29 12.2 °C 8.6 °C 995.5 hPa SSE 1.6 km/h 14.5 km/h 79% 0 mm
08:34 12.2 °C 8.6 °C 995.5 hPa South 1.6 km/h 4.8 km/h 79% 0 mm
08:39 12.2 °C 8.6 °C 995.5 hPa South 1.6 km/h 6.4 km/h 79% 0 mm
08:44 12.1 °C 8.6 °C 995.5 hPa South 1.6 km/h 6.4 km/h 79% 0 mm
08:49 12.1 °C 8.6 °C 995.5 hPa South 3.2 km/h 9.7 km/h 79% 0 mm
08:54 12.1 °C 8.6 °C 995.5 hPa Calm   6.4 km/h 79% 0 mm
08:59 12.1 °C 8.6 °C 995.5 hPa SSE 3.2 km/h 6.4 km/h 79% 0 mm
09:04 12.1 °C 8.6 °C 995.5 hPa SE 3.2 km/h 8 km/h 79% 0 mm
09:09 12 °C 8.7 °C 995.1 hPa Calm   6.4 km/h 80% 0 mm
09:14 11.8 °C 8.7 °C 995.1 hPa SSE 3.2 km/h 4.8 km/h 81% 0.25 mm
09:19 11.7 °C 8.7 °C 994.8 hPa ESE 1.6 km/h 8 km/h 82% 0.25 mm
09:24 11.5 °C 8.7 °C 994.8 hPa Calm   4.8 km/h 83% 0.51 mm
09:29 11.3 °C 8.7 °C 994.8 hPa Calm   6.4 km/h 84% 0.51 mm
09:34 11.2 °C 8.8 °C 994.8 hPa SE 1.6 km/h 6.4 km/h 85% 0.76 mm
09:39 11.2 °C 8.9 °C 994.8 hPa SSE 1.6 km/h 3.2 km/h 86% 0.76 mm
09:44 11.1 °C 8.8 °C 994.8 hPa Calm   4.8 km/h 86% 1.02 mm
09:49 11 °C 8.9 °C 994.8 hPa ESE 1.6 km/h 8 km/h 87% 1.52 mm
09:54 10.9 °C 8.8 °C 994.8 hPa ESE 3.2 km/h 8 km/h 87% 1.78 mm
09:59 10.8 °C 8.8 °C 994.8 hPa SE 4.8 km/h 8 km/h 87% 2.03 mm
10:04 10.7 °C 8.8 °C 994.8 hPa SSE 4.8 km/h 9.7 km/h 88% 2.29 mm
10:09 10.7 °C 8.8 °C 994.8 hPa SSE 4.8 km/h 12.9 km/h 88% 2.79 mm
10:14 10.6 °C 8.7 °C 994.8 hPa Calm   11.3 km/h 88% 2.79 mm
10:19 10.4 °C 8.7 °C 994.8 hPa SSE 6.4 km/h 12.9 km/h 89% 3.05 mm
10:24 10.4 °C 8.7 °C 994.8 hPa SE 4.8 km/h 8 km/h 89% 3.3 mm
10:29 10.3 °C 8.6 °C 994.5 hPa SE 4.8 km/h 9.7 km/h 89% 3.81 mm
10:34 10.3 °C 8.8 °C 994.5 hPa SE 1.6 km/h 9.7 km/h 90% 3.81 mm
10:39 10.3 °C 8.7 °C 994.5 hPa SE 3.2 km/h 11.3 km/h 90% 4.06 mm
10:44 10.2 °C 8.7 °C 994.5 hPa ESE 4.8 km/h 9.7 km/h 90% 4.06 mm
10:49 10.2 °C 8.6 °C 994.5 hPa ESE 4.8 km/h 9.7 km/h 90% 4.06 mm
10:54 10.1 °C 8.6 °C 994.5 hPa ESE 3.2 km/h 12.9 km/h 90% 4.06 mm
10:59 10.1 °C 8.5 °C 994.5 hPa ESE 4.8 km/h 12.9 km/h 90% 4.57 mm
11:04 9.9 °C 8.4 °C 994.5 hPa East 4.8 km/h 12.9 km/h 90% 5.08 mm
11:09 9.9 °C 8.3 °C 994.8 hPa East 3.2 km/h 9.7 km/h 90% 5.33 mm
11:14 9.8 °C 8.4 °C 994.5 hPa ENE 4.8 km/h 4.8 km/h 91% 6.35 mm
11:19 9.8 °C 8.4 °C 994.5 hPa ENE 3.2 km/h 9.7 km/h 91% 6.6 mm
11:24 9.8 °C 8.4 °C 994.5 hPa Calm   8 km/h 91% 7.11 mm
11:29 9.8 °C 8.4 °C 994.5 hPa NE 1.6 km/h 6.4 km/h 91% 7.11 mm
11:34 9.8 °C 8.4 °C 994.5 hPa Calm   4.8 km/h 91% 7.37 mm
11:39 9.8 °C 8.4 °C 994.5 hPa NE 3.2 km/h 4.8 km/h 91% 7.11 mm
11:44 9.8 °C 8.4 °C 994.1 hPa NE 1.6 km/h 6.4 km/h 91% 7.62 mm
11:49 9.8 °C 8.4 °C 994.1 hPa NE 3.2 km/h 6.4 km/h 91% 7.37 mm
11:54 9.8 °C 8.4 °C 993.8 hPa NE 3.2 km/h 8 km/h 91% 7.87 mm
11:59 9.9 °C 8.7 °C 993.8 hPa ENE 3.2 km/h 8 km/h 92% 7.37 mm
12:04 9.9 °C 8.7 °C 993.8 hPa ENE 3.2 km/h 8 km/h 92% 6.86 mm
12:09 9.9 °C 8.7 °C 993.8 hPa ENE 3.2 km/h 8 km/h 92% 6.35 mm
12:14 9.9 °C 8.7 °C 993.8 hPa East 3.2 km/h 8 km/h 92% 5.33 mm
12:19 10 °C 8.8 °C 993.8 hPa East 3.2 km/h 8 km/h 92% 4.83 mm
12:24 9.9 °C 8.7 °C 993.5 hPa NE 6.4 km/h 12.9 km/h 92% 4.32 mm
12:29 10.1 °C 8.8 °C 993.5 hPa ENE 4.8 km/h 8 km/h 92% 4.06 mm
12:34 10.2 °C 8.9 °C 993.5 hPa ENE 6.4 km/h 6.4 km/h 92% 3.81 mm
12:39 10.3 °C 9.1 °C 993.1 hPa ENE 4.8 km/h 8 km/h 92% 3.81 mm
12:44 10.3 °C 9.1 °C 993.5 hPa NE 1.6 km/h 8 km/h 92% 3.05 mm
12:49 10.3 °C 9.1 °C 993.1 hPa NE 1.6 km/h 4.8 km/h 92% 3.05 mm
12:54 10.4 °C 9.2 °C 993.1 hPa ENE 4.8 km/h 6.4 km/h 92% 2.54 mm
12:59 10.4 °C 9.2 °C 993.1 hPa East 12.9 km/h 12.9 km/h 92% 2.29 mm
13:04 10.4 °C 9.2 °C 992.8 hPa East 4.8 km/h 12.9 km/h 92% 2.29 mm
13:09 10.6 °C 9.3 °C 992.8 hPa East 4.8 km/h 12.9 km/h 92% 2.03 mm
13:14 10.7 °C 9.4 °C 992.8 hPa East 3.2 km/h 9.7 km/h 92% 1.78 mm
13:19 10.8 °C 9.6 °C 992.8 hPa ENE 3.2 km/h 8 km/h 92% 1.52 mm
13:24 10.8 °C 9.6 °C 992.8 hPa East 3.2 km/h 8 km/h 92% 1.27 mm
13:29 10.8 °C 9.4 °C 992.4 hPa East 3.2 km/h 9.7 km/h 91% 1.27 mm
13:34 10.8 °C 9.6 °C 992.4 hPa NE 4.8 km/h 6.4 km/h 92% 1.02 mm
13:39 10.9 °C 9.5 °C 992.4 hPa East 1.6 km/h 9.7 km/h 91% 1.02 mm
13:44 10.8 °C 9.4 °C 992.1 hPa ENE 4.8 km/h 9.7 km/h 91% 1.02 mm
13:49 10.8 °C 9.4 °C 992.1 hPa ESE 3.2 km/h 8 km/h 91% 0.76 mm
13:54 10.8 °C 9.4 °C 991.8 hPa East 8 km/h 8 km/h 91% 0.76 mm
13:59 10.9 °C 9.6 °C 991.8 hPa East 1.6 km/h 8 km/h 91% 0.76 mm
14:04 11.1 °C 9.7 °C 991.8 hPa East 1.6 km/h 8 km/h 91% 0.51 mm
14:09 11.1 °C 9.7 °C 991.4 hPa East 3.2 km/h 8 km/h 91% 0.51 mm
14:14 11.1 °C 9.7 °C 991.4 hPa East 3.2 km/h 9.7 km/h 91% 0.51 mm
14:19 11 °C 9.6 °C 991.1 hPa East 4.8 km/h 12.9 km/h 91% 0.51 mm
14:24 11 °C 9.6 °C 991.1 hPa ENE 4.8 km/h 12.9 km/h 91% 0.51 mm
14:29 11.2 °C 9.8 °C 991.1 hPa ENE 4.8 km/h 8 km/h 91% 0.25 mm
14:34 11.3 °C 9.9 °C 991.1 hPa ENE 3.2 km/h 8 km/h 91% 0.25 mm
14:39 11.2 °C 9.8 °C 991.1 hPa ENE 4.8 km/h 9.7 km/h 91% 0.25 mm
14:44 11.2 °C 9.8 °C 990.7 hPa Calm   9.7 km/h 91% 0.51 mm
14:49 11.1 °C 9.7 °C 990.7 hPa ENE 1.6 km/h 4.8 km/h 91% 0.51 mm
14:54 11 °C 9.4 °C 990.7 hPa Calm   6.4 km/h 90% 0.25 mm
14:59 11 °C 9.4 °C 990.7 hPa East 3.2 km/h 8 km/h 90% 0.25 mm
15:04 10.9 °C 9.5 °C 990.7 hPa ENE 1.6 km/h 9.7 km/h 91% 0.25 mm
15:09 10.9 °C 9.6 °C 990.7 hPa SE 6.4 km/h 9.7 km/h 91% 0.25 mm
15:14 10.9 °C 9.6 °C 990.4 hPa East 3.2 km/h 9.7 km/h 91% 0.25 mm
15:19 10.9 °C 9.6 °C 990.4 hPa East 3.2 km/h 9.7 km/h 91% 0.25 mm
15:24 10.8 °C 9.4 °C 990.4 hPa East 1.6 km/h 8 km/h 91% 0.25 mm
15:29 10.9 °C 9.6 °C 990.1 hPa ENE 1.6 km/h 4.8 km/h 91% 0.51 mm
15:34 10.9 °C 9.6 °C 989.7 hPa ENE 3.2 km/h 9.7 km/h 91% 0.51 mm
15:39 11 °C 9.6 °C 989.7 hPa NE 6.4 km/h 6.4 km/h 91% 0.51 mm
15:44 11.1 °C 9.7 °C 989.7 hPa NE 3.2 km/h 8 km/h 91% 0.25 mm
15:49 11.1 °C 9.7 °C 989.4 hPa ENE 1.6 km/h 9.7 km/h 91% 0.25 mm
15:54 11.2 °C 9.8 °C 989.4 hPa NE 3.2 km/h 8 km/h 91% 0.25 mm
15:59 11.2 °C 9.8 °C 989.1 hPa NE 3.2 km/h 9.7 km/h 91% 0.25 mm
16:04 11.3 °C 9.9 °C 989.1 hPa NE 1.6 km/h 9.7 km/h 91% 0.25 mm
16:09 11.3 °C 9.9 °C 989.1 hPa East 4.8 km/h 9.7 km/h 91% 0.25 mm
16:14 11.2 °C 9.7 °C 989.1 hPa ENE 3.2 km/h 8 km/h 90% 0.25 mm
16:19 11.1 °C 9.5 °C 989.1 hPa NE 3.2 km/h 9.7 km/h 90% 0.25 mm
16:24 10.9 °C 9.5 °C 989.1 hPa NNW 4.8 km/h 9.7 km/h 91% 0.25 mm
16:29 10.8 °C 9.4 °C 988.7 hPa North 4.8 km/h 9.7 km/h 91% 0 mm
16:34 10.9 °C 9.6 °C 988.7 hPa NNE 4.8 km/h 9.7 km/h 91% 0.25 mm
16:39 10.9 °C 9.5 °C 988.7 hPa NNE 3.2 km/h 8 km/h 91% 0.25 mm
16:44 10.9 °C 9.5 °C 988.4 hPa North 4.8 km/h 6.4 km/h 91% 0.25 mm
16:49 10.8 °C 9.4 °C 988.4 hPa North 4.8 km/h 9.7 km/h 91% 0.25 mm
16:54 10.8 °C 9.4 °C 988.7 hPa North 4.8 km/h 11.3 km/h 91% 0.25 mm
16:59 10.7 °C 9.4 °C 988.7 hPa NNE 4.8 km/h 11.3 km/h 92% 0.25 mm
17:04 10.6 °C 9.4 °C 988.4 hPa NNE 4.8 km/h 8 km/h 92% 0.25 mm
17:09 10.6 °C 9.3 °C 988.4 hPa North 4.8 km/h 12.9 km/h 92% 0.25 mm
17:14 10.4 °C 9.2 °C 988.4 hPa NE 8 km/h 9.7 km/h 92% 0.25 mm
17:19 10.3 °C 9.1 °C 988.4 hPa North 8 km/h 9.7 km/h 92% 0.25 mm
17:24 9.9 °C 8.6 °C 988.4 hPa North 6.4 km/h 16.1 km/h 91% 0.51 mm
17:29 9.6 °C 8.2 °C 988.4 hPa North 4.8 km/h 12.9 km/h 91% 0.76 mm
17:34 9.3 °C 8.1 °C 988.4 hPa North 8 km/h 14.5 km/h 92% 0.76 mm
17:39 9 °C 7.6 °C 988.7 hPa NNW 19.3 km/h 20.9 km/h 91% 1.02 mm
17:44 8.4 °C 7.1 °C 988.7 hPa North 6.4 km/h 19.3 km/h 91% 1.27 mm
17:49 8.1 °C 6.7 °C 988.7 hPa NNW 11.3 km/h 20.9 km/h 91% 1.27 mm
17:54 7.7 °C 6.3 °C 988.7 hPa North 8 km/h 20.9 km/h 91% 1.52 mm
17:59 7.1 °C 5.7 °C 989.1 hPa NNW 8 km/h 20.9 km/h 91% 1.78 mm
18:04 6.7 °C 5.3 °C 989.1 hPa North 8 km/h 19.3 km/h 91% 2.03 mm
18:09 6.3 °C 4.9 °C 989.1 hPa North 11.3 km/h 22.5 km/h 91% 2.03 mm
18:14 6 °C 4.7 °C 989.1 hPa North 11.3 km/h 22.5 km/h 91% 2.29 mm
18:19 5.7 °C 4.4 °C 989.4 hPa North 11.3 km/h 24.1 km/h 91% 2.29 mm
18:24 5.6 °C 4.2 °C 989.4 hPa North 3.2 km/h 17.7 km/h 91% 2.29 mm
18:29 5.5 °C 4.2 °C 989.4 hPa North 9.7 km/h 17.7 km/h 91% 2.29 mm
18:34 5.4 °C 4.1 °C 989.4 hPa NNE 8 km/h 14.5 km/h 91% 2.03 mm
18:39 5.3 °C 3.9 °C 989.4 hPa NNE 9.7 km/h 19.3 km/h 91% 2.03 mm
18:44 5.2 °C 3.9 °C 989.4 hPa North 6.4 km/h 17.7 km/h 91% 2.03 mm
18:49 5.2 °C 3.8 °C 989.7 hPa North 6.4 km/h 20.9 km/h 91% 2.03 mm
18:54 5.1 °C 3.8 °C 989.7 hPa NE 9.7 km/h 19.3 km/h 91% 2.03 mm
18:59 5.1 °C 3.7 °C 989.7 hPa North 12.9 km/h 25.7 km/h 91% 2.03 mm
19:04 5.1 °C 3.7 °C 989.7 hPa North 9.7 km/h 25.7 km/h 91% 2.03 mm
19:09 5 °C 3.8 °C 989.7 hPa North 11.3 km/h 22.5 km/h 92% 2.29 mm
19:14 5 °C 3.8 °C 989.7 hPa North 9.7 km/h 20.9 km/h 92% 2.03 mm
19:19 5.1 °C 3.9 °C 989.7 hPa NNE 9.7 km/h 16.1 km/h 92% 2.29 mm
19:24 5.1 °C 3.9 °C 989.7 hPa NNE 6.4 km/h 16.1 km/h 92% 2.29 mm
19:29 5.1 °C 3.9 °C 989.7 hPa NE 8 km/h 14.5 km/h 92% 2.29 mm
19:34 5.2 °C 4 °C 989.7 hPa North 8 km/h 17.7 km/h 92% 2.29 mm
19:39 5.1 °C 3.9 °C 989.7 hPa North 8 km/h 19.3 km/h 92% 2.29 mm
19:44 5.1 °C 3.9 °C 989.7 hPa North 8 km/h 19.3 km/h 92% 2.03 mm
19:49 5 °C 3.8 °C 989.7 hPa North 9.7 km/h 22.5 km/h 92% 2.29 mm
19:54 4.9 °C 3.8 °C 989.7 hPa NW 17.7 km/h 20.9 km/h 92% 2.29 mm
19:59 4.8 °C 3.5 °C 989.7 hPa NNE 9.7 km/h 25.7 km/h 91% 2.03 mm
20:04 4.8 °C 3.7 °C 989.7 hPa NE 9.7 km/h 19.3 km/h 92% 2.03 mm
20:09 4.7 °C 3.4 °C 990.1 hPa North 6.4 km/h 19.3 km/h 91% 2.03 mm
20:14 4.7 °C 3.5 °C 990.1 hPa NNW 16.1 km/h 20.9 km/h 92% 2.03 mm
20:19 4.5 °C 3.2 °C 990.1 hPa NNE 9.7 km/h 19.3 km/h 91% 2.03 mm
20:24 4.4 °C 3.1 °C 990.4 hPa NNE 12.9 km/h 20.9 km/h 91% 2.03 mm
20:29 4.3 °C 3 °C 990.4 hPa North 6.4 km/h 16.1 km/h 91% 2.03 mm
20:34 4.2 °C 2.9 °C 990.4 hPa North 6.4 km/h 20.9 km/h 91% 2.29 mm
20:39 4.1 °C 2.8 °C 990.7 hPa North 9.7 km/h 24.1 km/h 91% 2.29 mm
20:44 3.9 °C 2.6 °C 990.7 hPa North 11.3 km/h 24.1 km/h 91% 2.54 mm
20:49 3.8 °C 2.5 °C 990.7 hPa North 11.3 km/h 22.5 km/h 91% 2.29 mm
20:54 3.7 °C 2.3 °C 991.1 hPa North 11.3 km/h 22.5 km/h 91% 2.29 mm
20:59 3.6 °C 2.2 °C 991.1 hPa North 9.7 km/h 30.6 km/h 91% 2.54 mm
21:04 3.5 °C 2.2 °C 991.4 hPa NW 8 km/h 16.1 km/h 91% 2.54 mm
21:09 3.4 °C 1.9 °C 991.4 hPa NNW 14.5 km/h 20.9 km/h 90% 2.54 mm
21:14 3.3 °C 1.9 °C 991.4 hPa North 9.7 km/h 20.9 km/h 91% 3.05 mm
21:19 3.3 °C 1.9 °C 991.8 hPa North 9.7 km/h 19.3 km/h 91% 3.05 mm
21:24 3.2 °C 1.9 °C 991.8 hPa North 9.7 km/h 19.3 km/h 91% 3.05 mm
21:29 3.2 °C 1.8 °C 991.8 hPa North 11.3 km/h 19.3 km/h 91% 3.05 mm
21:34 3.1 °C 1.6 °C 991.8 hPa NNW 6.4 km/h 20.9 km/h 90% 3.05 mm
21:39 2.9 °C 1.4 °C 992.1 hPa NW 6.4 km/h 19.3 km/h 90% 3.05 mm
21:44 2.7 °C 1.2 °C 992.1 hPa NNE 9.7 km/h 24.1 km/h 90% 3.05 mm
21:49 2.6 °C 1.1 °C 992.1 hPa NNW 8 km/h 24.1 km/h 90% 3.3 mm
21:54 2.3 °C 0.8 °C 992.4 hPa NNW 9.7 km/h 19.3 km/h 90% 3.3 mm
21:59 2.1 °C 0.7 °C 992.4 hPa NNW 9.7 km/h 19.3 km/h 90% 3.3 mm
22:04 1.9 °C 0.4 °C 992.4 hPa NNW 8 km/h 17.7 km/h 90% 3.3 mm
22:09 1.7 °C 0.3 °C 992.4 hPa NNW 8 km/h 17.7 km/h 90% 3.3 mm
22:14 1.4 °C 0 °C 992.8 hPa NW 4.8 km/h 11.3 km/h 90% 2.79 mm
22:19 1.2 °C -0.2 °C 992.8 hPa NW 6.4 km/h 12.9 km/h 91% 2.79 mm
22:24 1.1 °C -0.2 °C 992.8 hPa WNW 3.2 km/h 16.1 km/h 91% 2.54 mm
22:29 0.8 °C -0.4 °C 992.8 hPa NNW 6.4 km/h 9.7 km/h 91% 2.29 mm
22:34 0.8 °C -0.5 °C 992.8 hPa NNW 3.2 km/h 9.7 km/h 91% 2.03 mm
22:39 0.7 °C -0.6 °C 992.8 hPa North 3.2 km/h 9.7 km/h 91% 1.78 mm
22:44 0.7 °C -0.6 °C 993.1 hPa NNW 6.4 km/h 11.3 km/h 91% 1.52 mm
22:49 0.6 °C -0.6 °C 993.1 hPa NW 4.8 km/h 11.3 km/h 92% 1.27 mm
22:54 0.6 °C -0.6 °C 992.8 hPa NW 3.2 km/h 9.7 km/h 92% 1.02 mm
22:59 0.6 °C -0.6 °C 992.8 hPa NW 4.8 km/h 11.3 km/h 92% 0.76 mm
23:04 0.6 °C -0.6 °C 992.8 hPa WNW 3.2 km/h 11.3 km/h 92% 0.51 mm
23:09 0.5 °C -0.7 °C 993.1 hPa WNW 1.6 km/h 6.4 km/h 92% 0.25 mm
23:14 0.5 °C -0.7 °C 993.1 hPa NW 3.2 km/h 11.3 km/h 92% 0.25 mm
23:19 0.5 °C -0.7 °C 993.1 hPa NW 4.8 km/h 11.3 km/h 92% 0 mm
23:24 0.6 °C -0.6 °C 993.1 hPa NW 4.8 km/h 14.5 km/h 92% 0 mm
23:29 0.5 °C -0.7 °C 993.1 hPa NW 4.8 km/h 8 km/h 92% 0 mm
23:34 0.5 °C -0.5 °C 993.1 hPa North 8 km/h 11.3 km/h 93% 0 mm
23:39 0.5 °C -0.5 °C 993.1 hPa WNW 4.8 km/h 12.9 km/h 93% 0 mm
23:44 0.5 °C -0.5 °C 993.1 hPa WNW 4.8 km/h 11.3 km/h 93% 0 mm
23:49 0.5 °C -0.5 °C 993.1 hPa NW 6.4 km/h 11.3 km/h 93% 0 mm
23:54 0.5 °C -0.5 °C 993.1 hPa NW 4.8 km/h 12.9 km/h 93% 0 mm
23:59 0.5 °C -0.5 °C 993.1 hPa NW 4.8 km/h 12.9 km/h 93% 0 mm
Buffalo, New York, USA
Compliments of Weather Underground - 2.5 mb